Terminal Aerodrome Forecast
Issued by NWS

Home | Current Version | Previous Version | Text Only | Print | Product List | Glossary On
Versions: 1 2 3 4 5 6 7 8 9 10 11 12 13 14 15 16 17 18 19 20 21 22 23
000
FTUS46 KLOX 251124
TAFPRB
TAF
KPRB 251124Z 2512/2612 VRB03KT P6SM BKN008
     FM251600 33008KT P6SM SCT010
     FM252100 22015G25KT P6SM SKC
     FM260400 29010KT P6SM SKC
     FM260900 28008KT P6SM OVC015
     FM261100 VRB03KT P6SM BKN008=

USA.gov is the U.S. government's official web portal to all federal, state and local government web resources and services.